Time;durP1;ratioP1;P1;durP2;ratioP2;P2;SDS_P1;SDS_P2;PMS_P1;PMS_P2;Temp;Humidity;BMP_temperature;BMP_pressure;BME280_temperature;BME280_humidity;BME280_pressure;Samples;Min_cycle;Max_cycle;Signal;HPM_P1;HPM_P2
2022/01/30 00:01:49;;;;;;;18.02;3.20;;;7.10;76.30;;;;;;5034134;28;20404;-57
2022/01/30 00:04:16;;;;;;;17.05;3.75;;;7.10;75.70;;;;;;5033918;28;20045;-57
2022/01/30 00:06:43;;;;;;;19.17;3.47;;;7.20;75.70;;;;;;5032657;28;20057;-54
2022/01/30 11:00:34;;;;;;;29.10;6.43;;;4.10;93.20;;;;;;5067518;28;20862;-59
2022/01/30 11:03:01;;;;;;;31.70;5.90;;;4.10;92.90;;;;;;5038823;28;20042;-56
2022/01/30 11:05:28;;;;;;;26.00;5.47;;;4.20;92.70;;;;;;5036516;28;20041;-60
2022/01/30 11:07:55;;;;;;;26.55;5.47;;;4.30;92.50;;;;;;5038521;28;20065;-55
2022/01/30 11:10:25;;;;;;;22.08;5.38;;;4.40;92.40;;;;;;5044663;28;20045;-56
2022/01/30 11:13:32;;;;;;;21.67;5.47;;;4.50;92.00;;;;;;5040781;28;20041;-56
2022/01/30 11:15:54;;;;;;;25.80;6.60;;;4.60;91.60;;;;;;5035655;28;20137;-55
2022/01/30 11:18:21;;;;;;;22.08;4.55;;;4.80;91.30;;;;;;5030108;28;20052;-55
2022/01/30 11:20:47;;;;;;;17.92;4.90;;;4.90;90.50;;;;;;5043906;28;20038;-53
2022/01/30 11:23:14;;;;;;;23.40;4.88;;;4.90;89.90;;;;;;5030060;28;20121;-55
2022/01/30 11:25:41;;;;;;;23.00;4.78;;;5.00;87.90;;;;;;5029942;28;20038;-54
2022/01/30 11:28:15;;;;;;;23.08;4.93;;;5.00;88.80;;;;;;5030009;28;20052;-53
2022/01/30 11:30:49;;;;;;;19.52;4.78;;;5.10;88.50;;;;;;5030115;28;20042;-59
2022/01/30 11:33:16;;;;;;;24.27;4.75;;;5.10;88.10;;;;;;5029743;28;20050;-57
2022/01/30 11:35:43;;;;;;;19.08;4.43;;;5.20;87.80;;;;;;5029724;28;20424;-58
2022/01/30 11:38:09;;;;;;;15.88;4.63;;;5.20;88.70;;;;;;5029677;28;20481;-60
2022/01/30 11:40:37;;;;;;;20.55;6.40;;;5.30;88.10;;;;;;5029612;28;20065;-57
2022/01/30 11:43:04;;;;;;;26.88;4.95;;;5.30;88.00;;;;;;5029541;28;20092;-58
2022/01/30 11:45:32;;;;;;;28.88;5.28;;;5.40;86.70;;;;;;5028028;28;20049;-57
2022/01/30 11:48:03;;;;;;;18.00;4.53;;;5.40;87.10;;;;;;5029687;28;20042;-57
2022/01/30 11:50:30;;;;;;;26.13;4.80;;;5.40;86.70;;;;;;5027079;28;20381;-60
2022/01/30 11:52:57;;;;;;;25.70;6.20;;;5.50;86.40;;;;;;5048384;28;20136;-61
2022/01/30 11:55:25;;;;;;;13.68;3.60;;;5.50;86.10;;;;;;5048160;28;20061;-59
2022/01/30 11:57:51;;;;;;;23.05;4.43;;;5.50;86.20;;;;;;5048212;28;20120;-61
2022/01/30 12:00:18;;;;;;;19.27;4.22;;;5.60;86.30;;;;;;5047401;28;20179;-53
2022/01/30 12:02:45;;;;;;;17.65;4.13;;;5.60;86.30;;;;;;5048426;28;20048;-53
2022/01/30 12:05:12;;;;;;;25.40;4.55;;;5.70;85.80;;;;;;5048534;28;20041;-58
2022/01/30 12:07:39;;;;;;;16.90;4.13;;;5.70;85.50;;;;;;5030995;28;20049;-60
2022/01/30 12:10:05;;;;;;;15.82;3.67;;;5.70;85.20;;;;;;5045417;28;20400;-57
2022/01/30 12:12:32;;;;;;;24.20;4.68;;;5.80;85.00;;;;;;5035588;28;20041;-57
2022/01/30 12:14:59;;;;;;;21.92;4.47;;;5.90;84.90;;;;;;5035239;28;20042;-58
2022/01/30 12:17:26;;;;;;;18.67;4.20;;;5.90;84.30;;;;;;5034450;28;20475;-57
2022/01/30 12:19:53;;;;;;;16.05;4.10;;;5.90;84.90;;;;;;5035321;28;20508;-61
2022/01/30 12:22:20;;;;;;;22.20;5.38;;;6.00;84.60;;;;;;5035291;28;20061;-61
2022/01/30 12:24:46;;;;;;;19.83;3.90;;;6.00;84.10;;;;;;5035042;28;20041;-60
2022/01/30 12:27:13;;;;;;;18.08;3.85;;;6.10;84.80;;;;;;5017823;28;20041;-58
2022/01/30 12:29:42;;;;;;;15.70;4.30;;;6.10;83.60;;;;;;5017617;28;20049;-57
2022/01/30 12:32:09;;;;;;;20.88;3.88;;;6.20;82.70;;;;;;5014452;28;20037;-58
2022/01/30 12:34:36;;;;;;;17.40;4.05;;;6.20;82.80;;;;;;5017913;28;20531;-59
2022/01/30 12:37:03;;;;;;;15.25;3.30;;;6.30;82.90;;;;;;5030937;28;20448;-58
2022/01/30 12:39:30;;;;;;;15.88;4.32;;;6.40;82.80;;;;;;5015818;28;20097;-60
2022/01/30 12:41:57;;;;;;;16.48;3.45;;;6.40;81.10;;;;;;5014017;28;20046;-57
2022/01/30 12:44:24;;;;;;;14.38;3.40;;;6.50;80.30;;;;;;5032104;28;20049;-61
2022/01/30 12:46:51;;;;;;;14.43;3.25;;;6.50;80.30;;;;;;5032171;28;20558;-60
2022/01/30 12:49:18;;;;;;;12.70;2.92;;;6.50;80.10;;;;;;5032460;28;20382;-61
2022/01/30 12:51:48;;;;;;;17.85;3.20;;;6.60;77.60;;;;;;5032229;28;20124;-56
2022/01/30 12:54:15;;;;;;;13.50;2.78;;;6.60;76.80;;;;;;5032219;28;20038;-58
2022/01/30 12:56:41;;;;;;;15.30;2.97;;;6.70;76.40;;;;;;5032848;28;20041;-59
2022/01/30 12:59:10;;;;;;;17.45;3.60;;;6.80;76.80;;;;;;5033719;28;20111;-57
2022/01/30 13:01:37;;;;;;;13.80;2.80;;;6.80;77.00;;;;;;5033100;28;20072;-55
2022/01/30 13:04:04;;;;;;;16.65;3.25;;;6.80;76.70;;;;;;5034107;28;20115;-56
2022/01/30 13:06:31;;;;;;;13.18;2.75;;;6.90;77.30;;;;;;5033663;28;20103;-59
2022/01/30 13:08:58;;;;;;;12.40;2.03;;;6.90;75.80;;;;;;5033822;28;20152;-59
2022/01/30 13:11:24;;;;;;;15.07;3.00;;;7.00;73.40;;;;;;5033772;28;20042;-55
2022/01/30 13:13:55;;;;;;;13.90;3.00;;;7.00;73.70;;;;;;5033856;28;20063;-58
2022/01/30 13:16:22;;;;;;;13.32;3.47;;;7.10;73.20;;;;;;5033628;28;20469;-60
2022/01/30 13:18:48;;;;;;;14.63;3.88;;;7.10;72.80;;;;;;5033327;28;20448;-58
2022/01/30 13:21:15;;;;;;;16.08;3.00;;;7.10;72.00;;;;;;5033496;28;20041;-59
2022/01/30 13:23:42;;;;;;;11.23;2.65;;;7.10;72.30;;;;;;5031483;28;20044;-60
2022/01/30 13:26:10;;;;;;;15.80;2.58;;;7.20;72.00;;;;;;5033565;28;20128;-58
2022/01/30 13:28:37;;;;;;;16.23;3.15;;;7.30;71.70;;;;;;5033294;28;20050;-58
2022/01/30 13:31:04;;;;;;;13.00;3.25;;;7.30;71.40;;;;;;5033187;28;20045;-62
2022/01/30 13:33:30;;;;;;;10.63;2.70;;;7.30;70.60;;;;;;5033255;28;20354;-61
2022/01/30 13:35:57;;;;;;;13.90;2.90;;;7.30;68.50;;;;;;5033481;28;20041;-60
2022/01/30 13:38:26;;;;;;;11.27;2.78;;;7.30;68.90;;;;;;5033014;28;20037;-58
2022/01/30 13:40:58;;;;;;;14.23;3.53;;;7.30;69.30;;;;;;5033191;28;20041;-59
2022/01/30 13:43:30;;;;;;;12.95;3.63;;;7.30;68.50;;;;;;5033098;28;20128;-55
2022/01/30 13:48:23;;;;;;;15.70;4.78;;;7.40;68.20;;;;;;5032970;28;20109;-61
2022/01/30 13:50:52;;;;;;;17.60;3.60;;;7.40;68.70;;;;;;5033050;28;20045;-59
2022/01/30 13:53:19;;;;;;;12.18;3.22;;;7.40;68.90;;;;;;5033109;28;20050;-59
2022/01/30 13:55:46;;;;;;;17.38;3.30;;;7.40;68.60;;;;;;5033862;28;20096;-60
2022/01/30 13:58:12;;;;;;;12.90;3.30;;;7.40;68.90;;;;;;5033617;28;20033;-60
2022/01/30 14:00:39;;;;;;;15.68;3.28;;;7.40;68.10;;;;;;5030886;28;20164;-62
2022/01/30 14:03:06;;;;;;;13.65;3.25;;;7.40;68.70;;;;;;5032850;28;20057;-59
2022/01/30 14:05:33;;;;;;;21.02;3.30;;;7.40;68.70;;;;;;5032841;28;20045;-62
2022/01/30 14:08:00;;;;;;;13.52;3.30;;;7.40;69.70;;;;;;5032546;28;20052;-58
2022/01/30 14:10:27;;;;;;;16.40;3.53;;;7.40;69.40;;;;;;5017833;28;20120;-60
2022/01/30 14:12:57;;;;;;;14.40;3.30;;;7.40;70.20;;;;;;5013537;28;20440;-61
2022/01/30 14:15:24;;;;;;;13.73;3.50;;;7.40;69.90;;;;;;5013713;28;20108;-58
2022/01/30 14:17:50;;;;;;;12.10;3.55;;;7.40;68.20;;;;;;5028387;28;20045;-62
2022/01/30 14:20:20;;;;;;;15.15;3.58;;;7.50;69.00;;;;;;5031158;28;20045;-62
2022/01/30 14:22:47;;;;;;;11.85;2.85;;;7.50;68.60;;;;;;5032362;28;20048;-58
2022/01/30 14:25:18;;;;;;;14.07;3.30;;;7.50;69.00;;;;;;5032383;28;20437;-60
2022/01/30 14:27:45;;;;;;;15.93;2.92;;;7.50;69.20;;;;;;5031043;28;20511;-55
2022/01/30 14:30:12;;;;;;;16.52;3.50;;;7.50;67.90;;;;;;5032204;28;20128;-55
2022/01/30 14:32:41;;;;;;;14.85;3.50;;;7.50;68.30;;;;;;5032206;28;20104;-61
2022/01/30 14:35:08;;;;;;;16.25;3.20;;;7.50;69.00;;;;;;5031984;28;20048;-61
2022/01/30 14:37:43;;;;;;;13.13;3.30;;;7.50;69.40;;;;;;5032238;28;20074;-60
2022/01/30 14:40:10;;;;;;;16.10;3.67;;;7.50;69.00;;;;;;5031967;28;20397;-62
2022/01/30 14:42:37;;;;;;;14.63;3.92;;;7.40;69.00;;;;;;5015660;28;20104;-57
2022/01/30 14:45:03;;;;;;;17.27;4.72;;;7.40;69.60;;;;;;5013363;28;20056;-61
2022/01/30 14:47:30;;;;;;;18.75;4.18;;;7.50;69.70;;;;;;5013192;28;20042;-57
2022/01/30 14:49:57;;;;;;;19.92;4.38;;;7.40;70.00;;;;;;5012995;28;20042;-57
2022/01/30 14:52:24;;;;;;;14.02;4.00;;;7.50;70.50;;;;;;5013113;28;20041;-58
2022/01/30 14:54:50;;;;;;;18.75;4.30;;;7.40;70.20;;;;;;5012912;28;20113;-60
2022/01/30 14:57:21;;;;;;;16.08;3.88;;;7.40;70.70;;;;;;5013132;28;20049;-63
2022/01/30 14:59:48;;;;;;;18.67;4.68;;;7.40;70.30;;;;;;5013104;28;20064;-58
2022/01/30 15:02:15;;;;;;;15.48;3.47;;;7.40;70.60;;;;;;5026820;28;20053;-60
2022/01/30 15:04:42;;;;;;;16.85;4.03;;;7.40;70.50;;;;;;5028513;28;20048;-56
2022/01/30 15:07:09;;;;;;;18.83;3.95;;;7.30;71.10;;;;;;5012918;28;20046;-62
2022/01/30 15:09:36;;;;;;;17.33;4.03;;;7.30;71.70;;;;;;5012891;28;20433;-60
2022/01/30 15:12:02;;;;;;;17.58;3.90;;;7.30;72.00;;;;;;5014560;28;20057;-60
2022/01/30 15:14:36;;;;;;;14.43;3.33;;;7.30;72.10;;;;;;5016110;28;20042;-61
2022/01/30 15:17:04;;;;;;;21.35;4.15;;;7.30;72.90;;;;;;5012873;28;20049;-60
2022/01/30 15:19:51;;;;;;;18.83;4.30;;;7.20;72.40;;;;;;5026307;28;20059;-58
2022/01/30 15:22:18;;;;;;;19.50;5.25;;;7.20;73.00;;;;;;5033823;28;20052;-58
2022/01/30 15:24:51;;;;;;;18.63;3.83;;;7.30;73.30;;;;;;5015564;28;20042;-58
2022/01/30 15:27:18;;;;;;;16.92;3.88;;;7.30;73.80;;;;;;5014609;28;20049;-58
2022/01/30 15:29:44;;;;;;;15.60;3.80;;;7.40;74.10;;;;;;5011938;28;20042;-60
2022/01/30 15:32:11;;;;;;;14.32;3.85;;;7.50;74.20;;;;;;5024933;28;20042;-60
2022/01/30 15:34:38;;;;;;;17.25;3.90;;;7.60;73.80;;;;;;5031830;28;20038;-59
2022/01/30 15:37:04;;;;;;;20.58;4.05;;;7.60;73.10;;;;;;5032024;28;20473;-61
2022/01/30 15:39:31;;;;;;;19.50;4.85;;;7.60;73.20;;;;;;5032293;28;20038;-57
2022/01/30 15:42:08;;;;;;;14.35;3.80;;;7.50;74.00;;;;;;5031919;28;20448;-60
2022/01/30 15:50:06;;;;;;;18.98;4.60;;;7.40;75.20;;;;;;5035452;28;20042;-60
2022/01/30 15:52:32;;;;;;;20.70;4.95;;;7.30;75.50;;;;;;5035342;28;20037;-62
2022/01/30 15:54:59;;;;;;;17.10;4.45;;;7.30;75.50;;;;;;5035214;28;20057;-62
2022/01/30 15:57:26;;;;;;;21.17;4.70;;;7.30;76.00;;;;;;5035027;28;20107;-59
2022/01/30 15:59:55;;;;;;;14.20;4.30;;;7.30;76.10;;;;;;5034060;28;20061;-58
2022/01/30 16:02:21;;;;;;;21.85;4.35;;;7.20;76.10;;;;;;5034950;28;20045;-59
2022/01/30 16:04:53;;;;;;;16.13;4.30;;;7.20;76.30;;;;;;5035065;28;20056;-56
2022/01/30 16:07:20;;;;;;;16.45;4.68;;;7.20;76.70;;;;;;5015730;28;20379;-59
2022/01/30 16:09:49;;;;;;;18.35;4.28;;;7.20;76.60;;;;;;5020953;28;20038;-62
2022/01/30 16:17:47;;;;;;;17.58;4.03;;;7.00;77.30;;;;;;5016000;28;20048;-60
2022/01/30 16:20:14;;;;;;;19.08;4.20;;;6.90;77.60;;;;;;5015718;28;20034;-60
2022/01/30 16:22:41;;;;;;;17.50;4.68;;;6.80;77.50;;;;;;5015706;28;20060;-59
2022/01/30 16:25:07;;;;;;;18.27;4.55;;;6.80;77.90;;;;;;5015467;28;20104;-59
2022/01/30 16:27:34;;;;;;;17.83;4.70;;;6.70;78.00;;;;;;5015651;28;20112;-57
2022/01/30 16:30:01;;;;;;;18.58;3.97;;;6.70;78.30;;;;;;5023334;28;20041;-61
2022/01/30 16:32:28;;;;;;;20.33;4.53;;;6.60;78.00;;;;;;5034421;28;20489;-56
2022/01/30 16:34:55;;;;;;;21.73;4.47;;;6.60;77.90;;;;;;5023838;28;20481;-59
2022/01/30 16:37:21;;;;;;;15.70;3.90;;;6.60;77.90;;;;;;5015563;28;20034;-57
2022/01/30 16:39:48;;;;;;;16.17;3.92;;;6.50;77.80;;;;;;5015445;28;20049;-61
2022/01/30 16:42:15;;;;;;;17.52;4.05;;;6.50;77.80;;;;;;5015449;28;20038;-58
2022/01/30 16:44:46;;;;;;;26.20;4.70;;;6.50;77.50;;;;;;5015290;28;20085;-57
2022/01/30 16:49:43;;;;;;;13.98;4.15;;;6.50;77.80;;;;;;5034076;28;20054;-58
2022/01/30 16:52:09;;;;;;;19.70;4.25;;;6.40;77.80;;;;;;5032823;28;20045;-58
2022/01/30 16:54:36;;;;;;;17.60;4.65;;;6.40;78.00;;;;;;5034012;28;20040;-61
2022/01/30 16:57:03;;;;;;;19.42;5.47;;;6.40;78.20;;;;;;5033799;28;20041;-58
2022/01/30 16:59:30;;;;;;;17.20;4.85;;;6.40;78.20;;;;;;5033019;28;20420;-57
2022/01/30 17:01:56;;;;;;;22.75;6.10;;;6.40;78.00;;;;;;5034077;28;20053;-58
2022/01/30 17:04:23;;;;;;;22.08;7.47;;;6.40;78.30;;;;;;5033872;28;20111;-54
2022/01/30 17:06:52;;;;;;;20.52;5.80;;;6.30;78.40;;;;;;5033988;28;20051;-61
2022/01/30 17:09:34;;;;;;;21.05;6.10;;;6.30;78.40;;;;;;5034047;28;20041;-57
2022/01/30 17:12:05;;;;;;;17.92;4.65;;;6.30;78.80;;;;;;5032549;28;20144;-60
2022/01/30 17:14:32;;;;;;;22.65;5.38;;;6.30;79.00;;;;;;5033730;28;20381;-54
2022/01/30 17:16:59;;;;;;;15.95;5.03;;;6.30;79.00;;;;;;5020036;28;20104;-60
2022/01/30 17:19:26;;;;;;;22.25;5.95;;;6.30;79.30;;;;;;5013634;28;20037;-58
2022/01/30 17:21:54;;;;;;;24.10;5.80;;;6.30;79.50;;;;;;5014525;28;20046;-59
2022/01/30 17:24:21;;;;;;;22.42;6.10;;;6.20;79.80;;;;;;5014372;28;20048;-62
2022/01/30 17:26:48;;;;;;;15.40;5.30;;;6.30;80.20;;;;;;5027030;28;20095;-63
2022/01/30 17:29:15;;;;;;;17.73;4.78;;;6.20;80.00;;;;;;5019785;28;20073;-59
2022/01/30 17:31:42;;;;;;;17.20;4.75;;;6.20;80.10;;;;;;5014114;28;20042;-57
2022/01/30 17:34:09;;;;;;;18.98;5.00;;;6.20;80.30;;;;;;5020289;28;20118;-57
2022/01/30 17:36:35;;;;;;;15.48;4.80;;;6.20;80.60;;;;;;5033067;28;20041;-63
2022/01/30 17:39:02;;;;;;;18.55;5.35;;;6.20;80.60;;;;;;5027463;28;20069;-56
2022/01/30 17:41:30;;;;;;;21.02;5.43;;;6.20;80.80;;;;;;5014265;28;20065;-56
2022/01/30 17:43:57;;;;;;;18.20;5.38;;;6.20;80.80;;;;;;5014197;28;20045;-59
2022/01/30 17:46:23;;;;;;;21.73;6.45;;;6.20;80.80;;;;;;5013873;28;20442;-60
2022/01/30 17:48:51;;;;;;;18.65;6.20;;;6.10;81.20;;;;;;5014131;28;20390;-58
2022/01/30 17:51:18;;;;;;;20.65;6.88;;;6.20;81.40;;;;;;5014117;28;20038;-61
2022/01/30 17:53:45;;;;;;;25.92;7.80;;;6.10;81.40;;;;;;5013903;28;20048;-57
2022/01/30 17:56:12;;;;;;;23.00;7.22;;;6.10;81.70;;;;;;5013864;28;20115;-59
2022/01/30 17:58:38;;;;;;;28.05;6.93;;;6.10;81.90;;;;;;5014513;28;20042;-61
2022/01/30 18:01:05;;;;;;;19.98;6.15;;;6.10;82.10;;;;;;5032812;28;20048;-58
2022/01/30 18:03:33;;;;;;;26.58;6.50;;;6.10;82.40;;;;;;5031852;28;20041;-59
2022/01/30 18:06:00;;;;;;;21.45;6.65;;;6.10;82.80;;;;;;5032643;28;20530;-58
2022/01/30 18:08:27;;;;;;;20.92;6.07;;;6.10;83.00;;;;;;5031956;28;20050;-58
2022/01/30 18:10:54;;;;;;;22.83;6.05;;;6.10;82.80;;;;;;5032560;28;20097;-55
2022/01/30 18:13:23;;;;;;;21.60;7.63;;;6.10;83.20;;;;;;5032564;28;20443;-58
2022/01/30 18:15:50;;;;;;;23.52;7.25;;;6.10;83.60;;;;;;5032437;28;20048;-59
2022/01/30 18:18:16;;;;;;;20.25;6.20;;;6.10;83.40;;;;;;5032263;28;20124;-60
2022/01/30 18:20:43;;;;;;;16.38;5.32;;;6.10;83.80;;;;;;5032591;28;20076;-61
2022/01/30 18:23:10;;;;;;;18.95;5.47;;;6.10;83.70;;;;;;5032435;28;20056;-58
2022/01/30 18:25:39;;;;;;;21.75;5.43;;;6.10;83.90;;;;;;5032289;28;20068;-61
2022/01/30 18:28:05;;;;;;;20.80;5.97;;;6.10;83.80;;;;;;5032107;28;20140;-57
2022/01/30 18:30:32;;;;;;;21.15;4.90;;;6.20;84.70;;;;;;5032179;28;20040;-60
2022/01/30 18:32:59;;;;;;;24.27;5.40;;;6.20;84.20;;;;;;5032300;28;20041;-61
2022/01/30 18:35:33;;;;;;;24.77;5.70;;;6.20;84.00;;;;;;5020736;28;20152;-58
2022/01/30 18:38:00;;;;;;;19.55;4.95;;;6.20;84.10;;;;;;5013236;28;20061;-59
2022/01/30 18:40:45;;;;;;;18.00;4.68;;;6.20;84.10;;;;;;5013420;28;20038;-57
2022/01/30 18:43:12;;;;;;;17.90;4.57;;;6.20;84.40;;;;;;5027519;28;20052;-61
2022/01/30 18:45:38;;;;;;;21.38;5.22;;;6.20;84.40;;;;;;5032127;28;20041;-61
2022/01/30 18:48:06;;;;;;;22.70;5.05;;;6.20;84.30;;;;;;5022878;28;20050;-60
2022/01/30 18:50:33;;;;;;;14.00;4.45;;;6.20;85.30;;;;;;5013179;28;20040;-61
2022/01/30 18:52:59;;;;;;;19.85;5.38;;;6.20;85.50;;;;;;5012981;28;20061;-58
2022/01/30 18:55:26;;;;;;;20.65;5.22;;;6.20;84.90;;;;;;5013300;28;20185;-59
2022/01/30 18:57:53;;;;;;;23.48;6.20;;;6.10;85.20;;;;;;5013111;28;20477;-60
2022/01/30 19:00:20;;;;;;;19.48;4.95;;;6.10;85.00;;;;;;5019903;28;20343;-63
2022/01/30 19:02:47;;;;;;;17.77;4.80;;;6.10;85.20;;;;;;5032053;28;20051;-56
2022/01/30 19:05:14;;;;;;;17.40;5.38;;;6.10;85.10;;;;;;5018474;28;20034;-53
2022/01/30 19:07:40;;;;;;;15.80;4.40;;;6.10;85.40;;;;;;5026853;28;20053;-61
2022/01/30 19:10:07;;;;;;;19.60;4.85;;;6.10;85.60;;;;;;5032263;28;20148;-61
2022/01/30 19:12:34;;;;;;;18.85;5.47;;;6.10;85.60;;;;;;5031456;28;20037;-60
2022/01/30 19:15:01;;;;;;;19.35;5.10;;;6.10;86.00;;;;;;5013391;28;20066;-60
2022/01/30 19:17:28;;;;;;;24.02;5.30;;;6.10;85.80;;;;;;5011922;28;20049;-58
2022/01/30 19:19:55;;;;;;;23.73;4.80;;;6.10;85.80;;;;;;5011641;28;20350;-58
2022/01/30 19:22:22;;;;;;;20.00;4.88;;;6.10;85.80;;;;;;5016885;28;20128;-61
2022/01/30 19:24:49;;;;;;;20.13;4.88;;;6.10;85.90;;;;;;5016929;28;20053;-63
2022/01/30 19:27:16;;;;;;;16.95;4.82;;;6.10;86.20;;;;;;5016906;28;20045;-60
2022/01/30 19:29:43;;;;;;;21.83;4.88;;;6.10;86.20;;;;;;5017581;28;20121;-58
2022/01/30 19:32:11;;;;;;;15.68;4.10;;;6.10;86.50;;;;;;5035603;28;20041;-56
2022/01/30 19:34:38;;;;;;;17.45;4.50;;;6.10;86.50;;;;;;5016772;28;20088;-56
2022/01/30 19:37:05;;;;;;;18.55;5.25;;;6.10;86.80;;;;;;5016589;28;20112;-60
2022/01/30 19:39:31;;;;;;;18.30;4.88;;;6.10;86.70;;;;;;5016451;28;20042;-58
2022/01/30 19:41:58;;;;;;;21.13;5.35;;;6.20;86.60;;;;;;5016590;28;20041;-59
2022/01/30 19:44:25;;;;;;;18.80;4.80;;;6.20;86.50;;;;;;5016071;28;20494;-62
2022/01/30 19:46:55;;;;;;;22.02;5.43;;;6.20;86.60;;;;;;5016204;28;20141;-60
2022/01/30 19:49:22;;;;;;;15.45;4.65;;;6.20;86.80;;;;;;5028978;28;20087;-57
2022/01/30 19:51:49;;;;;;;20.00;5.22;;;6.20;86.60;;;;;;5035289;28;20034;-59
2022/01/30 19:54:16;;;;;;;28.70;5.40;;;6.20;87.10;;;;;;5015883;28;20088;-57
2022/01/30 19:56:43;;;;;;;17.10;4.32;;;6.20;87.30;;;;;;5017490;28;20493;-55
2022/01/30 19:59:12;;;;;;;23.95;5.20;;;6.20;87.10;;;;;;5035320;28;20080;-60
2022/01/30 20:01:39;;;;;;;20.92;4.45;;;6.10;87.50;;;;;;5034375;28;20041;-61
2022/01/30 20:04:07;;;;;;;16.65;4.50;;;6.10;87.50;;;;;;5015784;28;20520;-61
2022/01/30 20:06:34;;;;;;;20.35;5.10;;;6.10;87.70;;;;;;5014660;28;20065;-61
2022/01/30 20:09:01;;;;;;;16.58;4.03;;;6.10;87.80;;;;;;5016451;28;20085;-56
2022/01/30 20:11:28;;;;;;;15.60;4.22;;;6.10;88.00;;;;;;5027821;28;20042;-58
2022/01/30 20:13:54;;;;;;;14.20;4.63;;;6.10;88.00;;;;;;5015617;28;20486;-57
2022/01/30 20:16:21;;;;;;;16.45;4.28;;;6.10;88.10;;;;;;5015347;28;20076;-60
2022/01/30 20:18:48;;;;;;;21.00;4.90;;;6.20;87.90;;;;;;5015511;28;20517;-59
2022/01/30 20:21:15;;;;;;;19.95;4.60;;;6.20;88.00;;;;;;5015241;28;20052;-57
2022/01/30 20:23:42;;;;;;;18.77;5.00;;;6.20;87.60;;;;;;5015325;28;20502;-61
2022/01/30 20:26:09;;;;;;;16.52;4.30;;;6.30;87.70;;;;;;5030650;28;20128;-58
2022/01/30 20:28:35;;;;;;;17.95;4.45;;;6.30;87.60;;;;;;5034672;28;20049;-60
2022/01/30 20:31:02;;;;;;;18.55;4.20;;;6.30;87.50;;;;;;5033851;28;20041;-55
2022/01/30 20:33:29;;;;;;;20.25;4.28;;;6.30;87.50;;;;;;5034692;28;20052;-59
2022/01/30 20:35:56;;;;;;;18.42;4.20;;;6.30;88.20;;;;;;5034427;28;20038;-57
2022/01/30 20:38:23;;;;;;;14.43;3.75;;;6.30;87.60;;;;;;5034227;28;20041;-55
2022/01/30 20:40:50;;;;;;;18.67;5.75;;;6.30;87.60;;;;;;5034478;28;20041;-60
2022/01/30 20:43:16;;;;;;;16.00;4.32;;;6.30;87.80;;;;;;5034255;28;20095;-54
2022/01/30 20:45:43;;;;;;;18.73;4.10;;;6.30;88.00;;;;;;5033019;28;20039;-59
2022/01/30 20:48:10;;;;;;;18.70;4.65;;;6.20;88.10;;;;;;5034346;28;20037;-60
2022/01/30 20:50:37;;;;;;;22.65;5.32;;;6.30;88.20;;;;;;5034322;28;20044;-60
2022/01/30 20:53:04;;;;;;;23.77;4.70;;;6.30;88.20;;;;;;5033896;28;20076;-59
2022/01/30 20:55:30;;;;;;;20.27;5.20;;;6.30;88.20;;;;;;5032722;28;20046;-59
2022/01/30 20:57:57;;;;;;;16.52;5.25;;;6.30;88.50;;;;;;5034024;28;20037;-59
2022/01/30 21:00:24;;;;;;;18.45;4.55;;;6.30;88.50;;;;;;5031908;28;20045;-60
2022/01/30 21:02:51;;;;;;;21.58;4.78;;;6.30;88.50;;;;;;5033938;28;20484;-51
2022/01/30 21:05:18;;;;;;;15.80;5.25;;;6.30;88.60;;;;;;5033983;28;20481;-56
2022/01/30 21:07:45;;;;;;;20.10;3.83;;;6.40;88.70;;;;;;5033904;28;20049;-59
2022/01/30 21:10:16;;;;;;;16.60;5.18;;;6.40;88.80;;;;;;5034794;28;20037;-59
2022/01/30 21:12:51;;;;;;;15.27;3.72;;;6.50;88.80;;;;;;5034713;28;20473;-60
2022/01/30 21:15:20;;;;;;;17.67;4.82;;;6.40;89.00;;;;;;5034229;28;20111;-61
2022/01/30 21:17:47;;;;;;;17.10;4.25;;;6.50;88.80;;;;;;5033781;28;20037;-56
2022/01/30 21:20:13;;;;;;;19.23;4.47;;;6.50;88.90;;;;;;5033561;28;20033;-56
2022/01/30 21:22:42;;;;;;;16.55;4.03;;;6.50;88.90;;;;;;5033434;28;20169;-57
2022/01/30 21:25:08;;;;;;;20.33;4.15;;;6.50;89.00;;;;;;5033497;28;20042;-60
2022/01/30 21:27:35;;;;;;;18.73;4.63;;;6.50;89.10;;;;;;5033589;28;20064;-58
2022/01/30 21:30:02;;;;;;;15.00;4.50;;;6.60;89.20;;;;;;5026710;28;20049;-56
2022/01/30 21:32:29;;;;;;;15.73;4.25;;;6.60;89.20;;;;;;5033417;28;20496;-59
2022/01/30 21:34:56;;;;;;;18.88;4.05;;;6.60;89.30;;;;;;5033224;28;20493;-62
2022/01/30 21:37:23;;;;;;;18.42;3.92;;;6.60;89.20;;;;;;5033331;28;20038;-62
2022/01/30 21:39:50;;;;;;;16.50;3.88;;;6.70;89.80;;;;;;5033438;28;20037;-58
2022/01/30 21:42:17;;;;;;;15.20;4.43;;;6.70;89.50;;;;;;5033213;28;20520;-57
2022/01/30 21:44:44;;;;;;;15.23;3.95;;;6.80;89.40;;;;;;5032722;28;20050;-61
2022/01/30 21:47:11;;;;;;;19.75;4.50;;;6.80;89.70;;;;;;5033325;28;20045;-57
2022/01/30 21:49:38;;;;;;;14.60;4.10;;;6.80;89.70;;;;;;5033664;28;20503;-59
2022/01/30 21:52:04;;;;;;;16.83;4.32;;;6.90;89.90;;;;;;5032976;28;20041;-59
2022/01/30 21:54:31;;;;;;;14.80;4.28;;;6.90;89.90;;;;;;5032656;28;20065;-57
2022/01/30 21:56:58;;;;;;;17.00;4.03;;;7.00;90.20;;;;;;5032843;28;20111;-58
2022/01/30 21:59:27;;;;;;;16.08;4.45;;;7.00;90.00;;;;;;5032593;28;20046;-57
2022/01/30 22:01:53;;;;;;;14.88;3.80;;;7.00;90.10;;;;;;5031611;28;20041;-58
2022/01/30 22:04:20;;;;;;;19.80;3.55;;;7.10;90.30;;;;;;5032652;28;20041;-59
2022/01/30 22:06:47;;;;;;;14.30;3.40;;;7.10;90.70;;;;;;5032861;28;20044;-51
2022/01/30 22:09:14;;;;;;;19.15;3.50;;;7.20;90.60;;;;;;5032888;28;20115;-58
2022/01/30 22:11:45;;;;;;;13.57;3.30;;;7.30;90.80;;;;;;5031300;28;20045;-57
2022/01/30 22:14:25;;;;;;;16.08;3.22;;;7.30;90.70;;;;;;5031709;28;20045;-63
2022/01/30 22:16:52;;;;;;;12.95;3.70;;;7.40;91.00;;;;;;5032436;28;20042;-60
2022/01/30 22:19:19;;;;;;;13.90;3.03;;;7.40;91.00;;;;;;5031664;28;20045;-58
2022/01/30 22:21:46;;;;;;;15.05;3.80;;;7.50;91.10;;;;;;5032822;28;20045;-63
2022/01/30 22:24:13;;;;;;;12.98;2.67;;;7.50;91.00;;;;;;5031732;28;20045;-62
2022/01/30 22:26:42;;;;;;;15.20;3.47;;;7.60;91.10;;;;;;5013345;28;20625;-57
2022/01/30 22:29:12;;;;;;;13.70;3.00;;;7.60;91.20;;;;;;5026291;28;20042;-57
2022/01/30 22:31:39;;;;;;;12.32;2.67;;;7.60;91.20;;;;;;5032325;28;20037;-57
2022/01/30 22:34:06;;;;;;;13.18;3.00;;;7.70;91.30;;;;;;5032329;28;20033;-59
2022/01/30 22:36:32;;;;;;;12.73;2.58;;;7.70;91.40;;;;;;5032511;28;20045;-59
2022/01/30 22:38:59;;;;;;;12.13;3.03;;;7.80;91.40;;;;;;5032767;28;20083;-55
2022/01/30 22:41:26;;;;;;;13.90;2.72;;;7.80;91.40;;;;;;5032607;28;20386;-59
2022/01/30 22:43:53;;;;;;;11.50;2.60;;;7.80;91.40;;;;;;5032233;28;20115;-62
2022/01/30 22:46:20;;;;;;;14.45;3.45;;;7.90;91.40;;;;;;5013095;28;20046;-56
2022/01/30 22:48:46;;;;;;;10.45;2.30;;;7.90;91.30;;;;;;5012657;28;20044;-56
2022/01/30 22:51:13;;;;;;;12.93;2.70;;;7.90;91.40;;;;;;5012630;28;20045;-56
2022/01/30 22:53:40;;;;;;;14.38;2.33;;;7.90;91.60;;;;;;5021487;28;20075;-54
2022/01/30 22:56:07;;;;;;;10.80;2.53;;;7.90;92.20;;;;;;5031065;28;20084;-59
2022/01/30 22:58:34;;;;;;;13.75;2.55;;;7.90;92.70;;;;;;5020274;28;20042;-59
2022/01/30 23:01:00;;;;;;;9.30;3.00;;;7.80;93.40;;;;;;5031024;28;20555;-59
2022/01/30 23:03:27;;;;;;;11.48;2.80;;;7.80;93.80;;;;;;5031664;28;20069;-59
2022/01/30 23:05:54;;;;;;;13.82;4.20;;;7.70;93.80;;;;;;5030539;28;20465;-59
2022/01/30 23:08:21;;;;;;;14.10;2.58;;;7.70;94.00;;;;;;5031187;28;20377;-58
2022/01/30 23:10:48;;;;;;;13.57;3.33;;;7.70;94.10;;;;;;5029849;28;20046;-60
2022/01/30 23:13:15;;;;;;;10.00;2.40;;;7.70;94.10;;;;;;5031205;28;20057;-56
2022/01/30 23:15:41;;;;;;;13.02;2.55;;;7.70;94.20;;;;;;5031240;28;20481;-59
2022/01/30 23:18:08;;;;;;;9.90;2.50;;;7.70;94.10;;;;;;5031212;28;20037;-59
2022/01/30 23:20:35;;;;;;;9.55;2.90;;;7.70;94.20;;;;;;5031180;28;20485;-56
2022/01/30 23:23:02;;;;;;;10.05;2.33;;;7.80;94.50;;;;;;5018827;28;20068;-56
2022/01/30 23:25:29;;;;;;;13.15;2.28;;;7.80;94.50;;;;;;5020909;28;20524;-55
2022/01/30 23:27:58;;;;;;;8.70;2.60;;;7.70;94.70;;;;;;5012782;28;20060;-56
2022/01/30 23:30:25;;;;;;;11.73;4.25;;;7.80;95.00;;;;;;5013090;28;20096;-56
2022/01/30 23:32:52;;;;;;;12.00;2.65;;;7.70;95.50;;;;;;5012960;28;20053;-58
2022/01/30 23:35:18;;;;;;;7.35;2.22;;;7.70;95.30;;;;;;5013206;28;20044;-61
2022/01/30 23:37:46;;;;;;;12.02;2.15;;;7.70;95.30;;;;;;5012794;28;20392;-59
2022/01/30 23:40:13;;;;;;;7.85;2.30;;;7.70;95.40;;;;;;5023088;28;20431;-52
2022/01/30 23:42:42;;;;;;;11.73;2.47;;;7.70;95.40;;;;;;5029858;28;20042;-57
2022/01/30 23:45:09;;;;;;;10.70;2.40;;;7.70;95.30;;;;;;5031150;28;20500;-53
2022/01/30 23:47:36;;;;;;;11.43;2.58;;;7.70;95.40;;;;;;5030915;28;20409;-58
2022/01/30 23:50:03;;;;;;;10.57;2.40;;;7.70;95.50;;;;;;5030353;28;20049;-59
2022/01/30 23:52:30;;;;;;;10.85;2.63;;;7.70;95.50;;;;;;5030779;28;20514;-57
2022/01/30 23:54:57;;;;;;;11.43;3.03;;;7.70;95.50;;;;;;5031071;28;20045;-56
2022/01/30 23:57:24;;;;;;;8.13;2.20;;;7.70;95.60;;;;;;5030776;28;20053;-56